Time;durP1;ratioP1;P1;durP2;ratioP2;P2;SDS_P1;SDS_P2;PMS_P1;PMS_P2;Temp;Humidity;BMP_temperature;BMP_pressure;BME280_temperature;BME280_humidity;BME280_pressure;Samples;Min_cycle;Max_cycle;Signal;HPM_P1;HPM_P2
2022/02/26 00:00:30;;;;;;;17.80;9.30;;;0.70;99.90;;;;;;5077474;28;20465;-58
2022/02/26 00:02:57;;;;;;;18.63;9.73;;;0.70;99.90;;;;;;5077604;28;20473;-59
2022/02/26 00:05:24;;;;;;;18.40;11.13;;;0.70;99.90;;;;;;5077746;28;20750;-59
2022/02/26 00:07:51;;;;;;;23.07;11.27;;;0.70;99.90;;;;;;5077023;28;20489;-59
2022/02/26 00:10:20;;;;;;;17.90;11.60;;;0.70;99.90;;;;;;5078010;28;20751;-59
2022/02/26 00:12:47;;;;;;;20.37;12.20;;;0.70;99.90;;;;;;5077347;28;20465;-59
2022/02/26 00:15:14;;;;;;;26.20;11.70;;;0.80;99.90;;;;;;5076951;28;20555;-59
2022/02/26 00:17:41;;;;;;;24.17;10.97;;;0.80;99.90;;;;;;5076915;28;20943;-59
2022/02/26 00:20:09;;;;;;;21.67;10.80;;;0.80;99.90;;;;;;5076866;28;20812;-59
2022/02/26 00:22:36;;;;;;;18.97;11.20;;;0.70;99.90;;;;;;5076865;28;20531;-58
2022/02/26 00:25:03;;;;;;;20.53;11.00;;;0.60;99.90;;;;;;5077260;28;20461;-59
2022/02/26 00:27:32;;;;;;;18.57;10.77;;;0.60;99.90;;;;;;5076248;28;20488;-57
2022/02/26 00:29:59;;;;;;;18.87;11.20;;;0.60;99.90;;;;;;5061040;28;20838;-58
2022/02/26 00:32:29;;;;;;;20.43;11.33;;;0.60;99.90;;;;;;5077127;28;20882;-58
2022/02/26 00:34:56;;;;;;;17.77;12.17;;;0.70;99.90;;;;;;5076435;28;20465;-57
2022/02/26 00:37:23;;;;;;;17.97;11.70;;;0.70;99.90;;;;;;5075030;28;20534;-59
2022/02/26 00:39:49;;;;;;;18.40;12.30;;;0.80;99.90;;;;;;5075422;28;20465;-59
2022/02/26 00:42:16;;;;;;;15.73;10.90;;;0.80;99.90;;;;;;5076378;28;20515;-59
2022/02/26 00:44:45;;;;;;;21.27;12.07;;;0.90;99.90;;;;;;5076906;28;20824;-59
2022/02/26 00:47:12;;;;;;;20.97;12.07;;;0.90;99.90;;;;;;5075939;28;20489;-57
2022/02/26 00:49:47;;;;;;;24.10;12.07;;;0.90;99.90;;;;;;5076530;28;20546;-58
2022/02/26 00:52:14;;;;;;;18.57;11.63;;;1.00;99.90;;;;;;5077382;28;20463;-59
2022/02/26 00:54:42;;;;;;;23.20;11.80;;;1.00;99.90;;;;;;5076536;28;20522;-58
2022/02/26 00:57:09;;;;;;;24.57;12.00;;;1.10;99.90;;;;;;5077285;28;20489;-60
2022/02/26 00:59:36;;;;;;;16.13;13.03;;;1.10;99.90;;;;;;5076582;28;20823;-60
2022/02/26 01:02:05;;;;;;;27.30;11.60;;;1.10;99.90;;;;;;5077016;28;20510;-60
2022/02/26 01:04:33;;;;;;;22.83;12.77;;;1.10;99.90;;;;;;5072044;28;20465;-60
2022/02/26 01:07:00;;;;;;;23.13;12.60;;;1.30;99.90;;;;;;5076098;28;20489;-60
2022/02/26 01:09:27;;;;;;;21.47;13.47;;;1.20;99.90;;;;;;5076199;28;20465;-60
2022/02/26 01:11:54;;;;;;;23.67;12.70;;;1.30;99.90;;;;;;5076735;28;20464;-60
2022/02/26 01:14:21;;;;;;;20.13;11.60;;;1.30;99.90;;;;;;5076341;28;20547;-60
2022/02/26 01:16:48;;;;;;;21.37;13.40;;;1.40;99.90;;;;;;5075617;28;20874;-60
2022/02/26 01:19:17;;;;;;;20.03;12.37;;;1.50;99.90;;;;;;5075941;28;20463;-60
2022/02/26 01:21:44;;;;;;;19.17;12.60;;;1.50;99.90;;;;;;5088247;28;20520;-60
2022/02/26 01:24:11;;;;;;;25.37;12.20;;;1.50;99.90;;;;;;5075659;28;20523;-60
2022/02/26 01:26:39;;;;;;;21.63;12.67;;;1.50;99.90;;;;;;5076924;28;20514;-60
2022/02/26 01:29:06;;;;;;;23.73;14.30;;;1.60;99.90;;;;;;5076909;28;20515;-60
2022/02/26 01:31:36;;;;;;;25.63;14.10;;;1.60;99.90;;;;;;5076099;28;20472;-60
2022/02/26 01:34:04;;;;;;;24.50;12.40;;;1.60;99.90;;;;;;5076610;28;20465;-60
2022/02/26 01:36:34;;;;;;;23.20;13.70;;;1.60;99.90;;;;;;5076784;28;20465;-59
2022/02/26 01:39:05;;;;;;;20.97;12.53;;;1.60;99.90;;;;;;5076451;28;20471;-58
2022/02/26 01:41:32;;;;;;;18.07;12.93;;;1.80;99.90;;;;;;5076102;28;20815;-60
2022/02/26 01:44:00;;;;;;;29.17;14.33;;;1.80;99.90;;;;;;5076955;28;20503;-60
2022/02/26 01:46:27;;;;;;;26.07;14.37;;;1.80;99.90;;;;;;5076426;28;20462;-59
2022/02/26 01:48:55;;;;;;;20.37;12.37;;;1.70;99.90;;;;;;5076196;28;20690;-60
2022/02/26 01:51:23;;;;;;;28.67;15.10;;;1.60;99.90;;;;;;5075807;28;20917;-60
2022/02/26 01:53:52;;;;;;;20.53;13.87;;;1.70;99.90;;;;;;5076449;28;20511;-60
2022/02/26 01:56:19;;;;;;;33.90;14.30;;;1.70;99.90;;;;;;5076299;28;20815;-60
2022/02/26 01:58:46;;;;;;;27.80;16.27;;;1.70;99.90;;;;;;5077151;28;20457;-60
2022/02/26 02:01:13;;;;;;;35.33;17.30;;;1.60;99.90;;;;;;5079473;28;20955;-60
2022/02/26 02:03:41;;;;;;;32.33;18.23;;;1.60;99.90;;;;;;5080012;28;20552;-60
2022/02/26 02:06:08;;;;;;;36.93;19.40;;;1.60;99.90;;;;;;5080011;28;20887;-60
2022/02/26 02:08:38;;;;;;;41.23;20.30;;;1.70;99.90;;;;;;5079555;28;20493;-60
2022/02/26 02:11:07;;;;;;;41.57;20.73;;;1.70;99.90;;;;;;5079979;28;20866;-60
2022/02/26 02:13:34;;;;;;;37.53;21.30;;;1.70;99.90;;;;;;5079010;28;20469;-58
2022/02/26 02:16:03;;;;;;;50.30;22.40;;;1.80;99.90;;;;;;5079787;28;20513;-60
2022/02/26 02:18:32;;;;;;;45.07;21.60;;;1.80;99.90;;;;;;5079459;28;20457;-60
2022/02/26 02:20:59;;;;;;;32.43;21.17;;;1.80;99.90;;;;;;5079430;28;20962;-60
2022/02/26 02:23:27;;;;;;;44.03;20.83;;;1.80;99.90;;;;;;5079038;28;20469;-60
2022/02/26 02:25:56;;;;;;;39.27;22.90;;;1.80;99.90;;;;;;5079569;28;20468;-60
2022/02/26 02:28:23;;;;;;;39.10;21.53;;;1.90;99.90;;;;;;5079612;28;20837;-60
2022/02/26 02:30:50;;;;;;;39.20;22.07;;;1.80;99.90;;;;;;5079892;28;20571;-60
2022/02/26 02:33:18;;;;;;;47.93;23.20;;;1.80;99.90;;;;;;5079587;28;20465;-60
2022/02/26 02:35:46;;;;;;;39.07;22.07;;;1.80;99.90;;;;;;5079205;28;20558;-60
2022/02/26 02:38:16;;;;;;;38.10;23.43;;;1.80;99.90;;;;;;5079721;28;20461;-60
2022/02/26 02:40:46;;;;;;;60.53;25.13;;;1.80;99.90;;;;;;5078836;28;20785;-60
2022/02/26 02:43:14;;;;;;;48.73;24.60;;;1.80;99.90;;;;;;5079571;28;20469;-60
2022/02/26 02:45:42;;;;;;;68.97;24.67;;;1.80;99.90;;;;;;5079209;28;20805;-61
2022/02/26 02:48:09;;;;;;;43.27;24.67;;;1.80;99.90;;;;;;5079319;28;20496;-61
2022/02/26 02:50:36;;;;;;;53.33;25.33;;;1.70;99.90;;;;;;5078575;28;20461;-61
2022/02/26 02:53:10;;;;;;;57.17;23.87;;;1.80;99.90;;;;;;5078941;28;20773;-60
2022/02/26 02:55:36;;;;;;;44.70;23.33;;;1.80;99.90;;;;;;5078985;28;20530;-60
2022/02/26 02:58:05;;;;;;;51.40;24.37;;;1.80;99.90;;;;;;5078680;28;20531;-60
2022/02/26 03:00:32;;;;;;;60.33;26.17;;;1.80;99.90;;;;;;5078605;28;20761;-60
2022/02/26 03:02:59;;;;;;;49.90;26.00;;;1.80;99.90;;;;;;5078207;28;20902;-60
2022/02/26 03:05:26;;;;;;;50.87;25.40;;;1.80;99.90;;;;;;5078810;28;20795;-60
2022/02/26 03:07:56;;;;;;;47.43;25.93;;;1.80;99.90;;;;;;5078901;28;20931;-60
2022/02/26 03:10:23;;;;;;;44.80;24.50;;;1.80;99.90;;;;;;5078022;28;20465;-60
2022/02/26 03:12:52;;;;;;;50.37;26.03;;;1.80;99.90;;;;;;5077758;28;20534;-60
2022/02/26 03:15:24;;;;;;;55.83;26.20;;;1.80;99.90;;;;;;5078733;28;20771;-58
2022/02/26 03:17:52;;;;;;;50.77;24.30;;;1.80;99.90;;;;;;5078821;28;20816;-58
2022/02/26 03:20:19;;;;;;;34.87;23.17;;;1.80;99.90;;;;;;5078568;28;20758;-59
2022/02/26 03:22:46;;;;;;;43.53;23.83;;;1.70;99.90;;;;;;5078165;28;20461;-57
2022/02/26 03:25:15;;;;;;;53.93;24.80;;;1.80;99.90;;;;;;5078479;28;20473;-58
2022/02/26 03:27:42;;;;;;;42.13;24.07;;;1.80;99.90;;;;;;5078151;28;20493;-57
2022/02/26 03:30:10;;;;;;;41.60;23.73;;;1.80;99.90;;;;;;5078590;28;20440;-59
2022/02/26 03:32:39;;;;;;;46.13;24.13;;;1.80;99.90;;;;;;5077410;28;20468;-56
2022/02/26 03:35:08;;;;;;;47.47;23.03;;;1.80;99.90;;;;;;5078285;28;20542;-59
2022/02/26 03:37:35;;;;;;;65.40;23.20;;;1.70;99.90;;;;;;5077889;28;20554;-59
2022/02/26 03:40:03;;;;;;;35.97;20.83;;;1.70;99.90;;;;;;5078099;28;20985;-54
2022/02/26 03:42:30;;;;;;;48.77;24.80;;;1.70;99.90;;;;;;5077530;28;20473;-56
2022/02/26 03:44:57;;;;;;;97.60;25.00;;;1.70;99.90;;;;;;5077766;28;20466;-54
2022/02/26 03:47:24;;;;;;;75.47;25.20;;;1.70;99.90;;;;;;5077605;28;20496;-54
2022/02/26 03:49:52;;;;;;;50.03;23.40;;;1.70;99.90;;;;;;5078224;28;20465;-58
2022/02/26 03:52:20;;;;;;;109.20;28.93;;;1.70;99.90;;;;;;5078901;28;20874;-59
2022/02/26 03:54:47;;;;;;;47.73;23.00;;;1.70;99.90;;;;;;5078153;28;20883;-59
2022/02/26 03:57:14;;;;;;;40.93;24.27;;;1.60;99.90;;;;;;5078658;28;20710;-59
2022/02/26 03:59:42;;;;;;;96.90;27.77;;;1.70;99.90;;;;;;5077557;28;20563;-57
2022/02/26 04:02:09;;;;;;;58.83;25.40;;;1.60;99.90;;;;;;5078396;28;20511;-59
2022/02/26 04:04:37;;;;;;;43.73;23.83;;;1.70;99.90;;;;;;5078711;28;20880;-59
2022/02/26 04:07:06;;;;;;;49.33;25.53;;;1.70;99.90;;;;;;5078874;28;20540;-58
2022/02/26 04:09:34;;;;;;;78.67;27.50;;;1.70;99.90;;;;;;5077136;28;20546;-59
2022/02/26 04:12:01;;;;;;;49.90;25.63;;;1.80;99.90;;;;;;5078143;28;20526;-56
2022/02/26 04:14:28;;;;;;;52.10;24.60;;;1.70;99.90;;;;;;5078252;28;20535;-58
2022/02/26 04:16:55;;;;;;;41.03;25.77;;;1.70;99.90;;;;;;5078033;28;20760;-57
2022/02/26 04:19:22;;;;;;;61.33;27.53;;;1.80;99.90;;;;;;5078099;28;20462;-59
2022/02/26 04:21:49;;;;;;;45.73;25.97;;;1.70;99.90;;;;;;5077473;28;20486;-59
2022/02/26 04:24:18;;;;;;;50.03;25.63;;;1.80;99.90;;;;;;5078268;28;20906;-58
2022/02/26 04:26:45;;;;;;;52.30;27.10;;;1.70;99.90;;;;;;5077640;28;20466;-57
2022/02/26 04:29:12;;;;;;;90.40;28.90;;;1.70;99.90;;;;;;5078244;28;20493;-58
2022/02/26 04:31:40;;;;;;;94.27;29.73;;;1.70;99.90;;;;;;5077957;28;20520;-58
2022/02/26 04:34:07;;;;;;;57.10;29.33;;;1.80;99.90;;;;;;5077852;28;20469;-59
2022/02/26 04:36:34;;;;;;;92.03;29.00;;;1.80;99.90;;;;;;5078016;28;20476;-59
2022/02/26 04:39:01;;;;;;;110.63;31.33;;;1.80;99.90;;;;;;5078378;28;20527;-59
2022/02/26 04:41:29;;;;;;;80.83;30.47;;;1.80;99.90;;;;;;5078190;28;20461;-59
2022/02/26 04:43:58;;;;;;;61.50;26.70;;;1.80;99.90;;;;;;5077731;28;20465;-59
2022/02/26 04:46:25;;;;;;;66.60;26.30;;;1.60;99.90;;;;;;5078600;28;20457;-59
2022/02/26 04:48:52;;;;;;;104.33;29.47;;;1.60;99.90;;;;;;5072620;28;20493;-59
2022/02/26 04:51:19;;;;;;;56.57;25.90;;;1.60;99.90;;;;;;5078676;28;20535;-60
2022/02/26 04:53:46;;;;;;;48.43;24.00;;;1.50;99.90;;;;;;5077493;28;20831;-59
2022/02/26 04:56:13;;;;;;;89.17;25.20;;;1.50;99.90;;;;;;5077859;28;20460;-59
2022/02/26 04:58:42;;;;;;;185.70;33.90;;;1.50;99.90;;;;;;5076794;28;20496;-59
2022/02/26 05:01:09;;;;;;;188.37;34.73;;;1.50;99.90;;;;;;5077559;28;20465;-56
2022/02/26 05:03:36;;;;;;;72.83;24.33;;;1.40;99.90;;;;;;5077312;28;20839;-56
2022/02/26 05:06:04;;;;;;;86.83;26.47;;;1.30;99.90;;;;;;5077961;28;20929;-59
2022/02/26 05:08:31;;;;;;;60.17;24.13;;;1.30;99.90;;;;;;5076382;28;20493;-57
2022/02/26 05:10:58;;;;;;;94.30;24.80;;;1.20;99.90;;;;;;5076910;28;20468;-55
2022/02/26 05:13:25;;;;;;;142.83;28.17;;;1.20;99.90;;;;;;5077102;28;20887;-58
2022/02/26 05:15:54;;;;;;;183.50;32.70;;;1.20;99.90;;;;;;5076451;28;20474;-58
2022/02/26 05:18:21;;;;;;;82.70;26.97;;;1.20;99.90;;;;;;5077082;28;20481;-55
2022/02/26 05:20:48;;;;;;;93.33;25.60;;;1.10;99.90;;;;;;5076096;28;20461;-58
2022/02/26 05:23:15;;;;;;;58.87;22.97;;;1.10;99.90;;;;;;5077022;28;20432;-52
2022/02/26 05:25:42;;;;;;;52.80;22.93;;;1.10;99.90;;;;;;5076738;28;20468;-54
2022/02/26 05:28:09;;;;;;;154.63;29.97;;;1.10;99.90;;;;;;5076426;28;20485;-57
2022/02/26 05:30:36;;;;;;;154.80;29.03;;;1.20;99.90;;;;;;5076371;28;20461;-58
2022/02/26 05:33:05;;;;;;;137.50;29.00;;;1.10;99.90;;;;;;5074933;28;20462;-58
2022/02/26 05:35:32;;;;;;;114.60;28.33;;;1.10;99.90;;;;;;5078419;28;20937;-58
2022/02/26 05:37:59;;;;;;;52.30;21.77;;;1.10;99.90;;;;;;5079954;28;20537;-58
2022/02/26 05:40:28;;;;;;;42.87;21.70;;;1.10;99.90;;;;;;5079827;28;20763;-58
2022/02/26 05:42:55;;;;;;;98.77;24.60;;;1.10;99.90;;;;;;5079145;28;20457;-57
2022/02/26 05:45:22;;;;;;;94.97;24.40;;;1.10;99.90;;;;;;5080367;28;20526;-53
2022/02/26 05:47:49;;;;;;;75.37;21.30;;;1.00;99.90;;;;;;5079624;28;20685;-55
2022/02/26 05:50:19;;;;;;;36.53;18.97;;;0.90;99.90;;;;;;5080348;28;20496;-57
2022/02/26 05:52:46;;;;;;;43.57;19.27;;;0.90;99.90;;;;;;5079796;28;20567;-54
2022/02/26 05:55:13;;;;;;;78.13;21.23;;;0.90;99.90;;;;;;5079427;28;20464;-52
2022/02/26 05:57:40;;;;;;;86.50;24.40;;;0.90;99.90;;;;;;5077875;28;20948;-56
2022/02/26 06:00:08;;;;;;;36.00;21.33;;;1.00;99.90;;;;;;5080594;28;20458;-58
2022/02/26 06:02:35;;;;;;;151.87;28.80;;;0.90;99.90;;;;;;5079292;28;20531;-55
2022/02/26 06:05:02;;;;;;;82.80;25.07;;;1.00;99.90;;;;;;5080187;28;20465;-55
2022/02/26 06:07:31;;;;;;;82.57;22.93;;;1.00;99.90;;;;;;5080308;28;20864;-55
2022/02/26 06:09:58;;;;;;;82.80;22.30;;;1.00;99.90;;;;;;5080354;28;20546;-55
2022/02/26 06:12:26;;;;;;;40.57;20.60;;;0.90;99.90;;;;;;5079691;28;20453;-56
2022/02/26 06:14:53;;;;;;;44.03;21.33;;;0.90;99.90;;;;;;5079721;28;20492;-52
2022/02/26 06:17:20;;;;;;;150.77;27.77;;;0.90;99.90;;;;;;5079927;28;20469;-55
2022/02/26 06:19:47;;;;;;;95.93;25.67;;;1.00;99.90;;;;;;5080318;28;20491;-54
2022/02/26 06:22:15;;;;;;;101.57;25.30;;;1.00;99.90;;;;;;5079649;28;20471;-57
2022/02/26 06:24:43;;;;;;;94.93;28.53;;;1.00;99.90;;;;;;5079439;28;20514;-58
2022/02/26 06:27:11;;;;;;;52.10;26.67;;;1.00;99.90;;;;;;5079373;28;20465;-57
2022/02/26 06:29:38;;;;;;;83.27;28.50;;;1.10;99.90;;;;;;5079379;28;20539;-58
2022/02/26 06:32:06;;;;;;;44.80;22.23;;;1.00;99.90;;;;;;5079837;28;20473;-55
2022/02/26 06:34:34;;;;;;;65.80;26.50;;;1.10;99.90;;;;;;5079436;28;20465;-58
2022/02/26 06:37:00;;;;;;;49.33;24.67;;;1.10;99.90;;;;;;5079730;28;20535;-58
2022/02/26 06:39:29;;;;;;;121.80;27.27;;;1.10;99.90;;;;;;5079300;28;20461;-57
2022/02/26 06:41:58;;;;;;;111.63;30.83;;;1.10;99.90;;;;;;5079745;28;20468;-58
2022/02/26 06:44:25;;;;;;;53.83;25.57;;;1.00;99.90;;;;;;5079257;28;20461;-59
2022/02/26 06:46:55;;;;;;;114.10;29.57;;;1.00;99.90;;;;;;5079794;28;20465;-58
2022/02/26 06:49:22;;;;;;;56.77;22.87;;;1.00;99.90;;;;;;5079071;28;20489;-59
2022/02/26 06:51:49;;;;;;;99.90;27.97;;;1.00;99.90;;;;;;5079099;28;20461;-57
2022/02/26 06:54:16;;;;;;;184.73;33.70;;;1.00;99.90;;;;;;5079318;28;20469;-56
2022/02/26 06:56:43;;;;;;;92.63;26.33;;;1.10;99.90;;;;;;5079428;28;20461;-58
2022/02/26 06:59:12;;;;;;;150.70;29.17;;;1.10;99.90;;;;;;5077775;28;20515;-59
2022/02/26 07:01:40;;;;;;;204.03;33.63;;;1.10;99.90;;;;;;5079438;28;20465;-56
2022/02/26 07:04:15;;;;;;;115.53;27.90;;;1.10;99.90;;;;;;5077915;28;20469;-59
2022/02/26 07:06:43;;;;;;;174.73;30.60;;;1.10;99.90;;;;;;5077690;28;20898;-57
2022/02/26 07:09:10;;;;;;;107.30;25.97;;;1.20;99.90;;;;;;5075007;28;20488;-56
2022/02/26 07:11:38;;;;;;;191.60;32.00;;;1.20;99.90;;;;;;5077814;28;20976;-59
2022/02/26 07:14:05;;;;;;;121.00;27.93;;;1.20;99.90;;;;;;5078332;28;20493;-59
2022/02/26 07:16:36;;;;;;;122.10;25.87;;;1.00;99.90;;;;;;5078303;28;20468;-59
2022/02/26 07:19:05;;;;;;;216.10;33.23;;;1.10;99.90;;;;;;5078857;28;20458;-58
2022/02/26 07:21:32;;;;;;;182.73;30.97;;;1.20;99.90;;;;;;5077978;28;20812;-57
2022/02/26 07:23:59;;;;;;;107.27;27.07;;;1.30;99.90;;;;;;5078522;28;20469;-60
2022/02/26 07:26:27;;;;;;;312.03;37.87;;;1.30;99.90;;;;;;5079119;28;20875;-59
2022/02/26 07:28:54;;;;;;;125.47;27.90;;;1.30;99.90;;;;;;5078643;28;20546;-60
2022/02/26 07:31:21;;;;;;;164.80;28.90;;;1.30;99.90;;;;;;5078566;28;20518;-60
2022/02/26 07:33:50;;;;;;;216.60;31.17;;;1.40;99.90;;;;;;5078561;28;20465;-60
2022/02/26 07:36:18;;;;;;;143.87;28.57;;;1.40;99.90;;;;;;5078551;28;20531;-60
2022/02/26 07:38:45;;;;;;;140.40;28.53;;;1.30;99.90;;;;;;5078240;28;20465;-60
2022/02/26 07:41:12;;;;;;;105.77;23.20;;;1.20;99.90;;;;;;5077746;28;20457;-60
2022/02/26 07:43:40;;;;;;;164.93;29.30;;;1.20;99.90;;;;;;5078449;28;20465;-58
2022/02/26 07:46:09;;;;;;;156.70;27.23;;;1.40;99.90;;;;;;5078271;28;20528;-60
2022/02/26 07:48:37;;;;;;;68.90;20.63;;;1.50;99.90;;;;;;5077828;28;20467;-60
2022/02/26 07:51:05;;;;;;;103.43;24.87;;;1.50;99.90;;;;;;5077520;28;20469;-60
2022/02/26 07:53:32;;;;;;;114.10;24.77;;;1.50;99.90;;;;;;5077786;28;20921;-60
2022/02/26 07:56:02;;;;;;;51.40;22.17;;;1.60;99.90;;;;;;5077847;28;20967;-61
2022/02/26 07:58:29;;;;;;;118.63;27.37;;;1.60;99.90;;;;;;5077511;28;20465;-62
2022/02/26 08:00:56;;;;;;;192.83;30.67;;;1.70;99.90;;;;;;5078001;28;20477;-61
2022/02/26 08:03:23;;;;;;;104.17;26.47;;;1.70;99.90;;;;;;5076908;28;20545;-61
2022/02/26 08:05:50;;;;;;;112.60;24.20;;;1.80;99.90;;;;;;5076679;28;20461;-61
2022/02/26 08:08:20;;;;;;;139.43;27.60;;;1.70;99.90;;;;;;5077324;28;20462;-60
2022/02/26 08:10:47;;;;;;;104.37;27.33;;;1.80;99.90;;;;;;5077267;28;20493;-61
2022/02/26 08:13:14;;;;;;;56.27;33.77;;;1.90;99.90;;;;;;5076806;28;20465;-61
2022/02/26 08:15:42;;;;;;;98.30;23.40;;;1.90;99.90;;;;;;5077150;28;20492;-61
2022/02/26 08:18:13;;;;;;;52.87;17.90;;;2.00;99.90;;;;;;5077676;28;20465;-61
2022/02/26 08:20:42;;;;;;;60.00;19.50;;;2.00;99.90;;;;;;5077028;28;20461;-62
2022/02/26 08:23:09;;;;;;;86.27;20.10;;;2.10;99.90;;;;;;5076582;28;20461;-62
2022/02/26 08:25:37;;;;;;;41.20;20.00;;;2.20;99.90;;;;;;5077560;28;20875;-62
2022/02/26 08:28:04;;;;;;;55.57;17.90;;;2.20;99.90;;;;;;5076907;28;20465;-62
2022/02/26 08:30:31;;;;;;;101.37;30.27;;;2.10;99.90;;;;;;5076040;28;20852;-62
2022/02/26 08:32:59;;;;;;;104.20;34.17;;;2.10;99.90;;;;;;5075672;28;20511;-62
2022/02/26 08:35:26;;;;;;;146.20;23.63;;;2.20;99.90;;;;;;5061774;28;20608;-62
2022/02/26 08:37:53;;;;;;;87.60;20.93;;;2.40;99.90;;;;;;5076509;28;20485;-62
2022/02/26 08:40:23;;;;;;;28.93;18.27;;;2.50;99.90;;;;;;5076523;28;20457;-62
2022/02/26 08:42:51;;;;;;;36.37;16.40;;;2.50;99.90;;;;;;5076340;28;20461;-62
2022/02/26 08:45:18;;;;;;;62.50;18.50;;;2.40;99.90;;;;;;5076699;28;20477;-62
2022/02/26 08:47:45;;;;;;;43.03;17.03;;;2.40;99.90;;;;;;5077047;28;20538;-62
2022/02/26 08:50:16;;;;;;;62.73;19.17;;;2.60;99.90;;;;;;5061150;28;20485;-62
2022/02/26 08:52:46;;;;;;;31.70;18.43;;;2.80;99.90;;;;;;5077227;28;20784;-62
2022/02/26 08:55:13;;;;;;;42.10;17.20;;;3.00;99.90;;;;;;5076866;28;20530;-62
2022/02/26 08:57:40;;;;;;;31.67;14.87;;;3.10;99.90;;;;;;5077140;28;20465;-63
2022/02/26 09:00:13;;;;;;;33.83;17.33;;;3.30;99.90;;;;;;5077037;28;20511;-63
2022/02/26 09:02:40;;;;;;;29.87;15.17;;;3.30;99.90;;;;;;5077342;28;20461;-62
2022/02/26 09:05:08;;;;;;;27.87;17.87;;;3.30;99.90;;;;;;5076427;28;20550;-63
2022/02/26 09:07:35;;;;;;;49.07;28.17;;;3.20;99.90;;;;;;5076599;28;20465;-62
2022/02/26 09:10:06;;;;;;;22.60;14.13;;;3.50;99.90;;;;;;5080427;28;20488;-62
2022/02/26 09:12:33;;;;;;;27.47;18.13;;;3.70;99.90;;;;;;5081347;28;20464;-62
2022/02/26 09:15:00;;;;;;;61.13;33.13;;;3.70;99.90;;;;;;5080879;28;20484;-62
2022/02/26 09:17:29;;;;;;;23.33;15.33;;;3.80;99.90;;;;;;5081110;28;20461;-62
2022/02/26 09:19:56;;;;;;;20.90;15.23;;;3.70;99.90;;;;;;5080918;28;20465;-62
2022/02/26 09:22:23;;;;;;;23.97;14.67;;;4.00;99.90;;;;;;5081224;28;20465;-63
2022/02/26 09:24:53;;;;;;;21.33;14.77;;;4.00;99.90;;;;;;5080395;28;20462;-63
2022/02/26 09:27:19;;;;;;;20.23;13.90;;;3.80;99.90;;;;;;5080320;28;20469;-62
2022/02/26 09:29:47;;;;;;;23.33;14.20;;;3.90;99.90;;;;;;5080371;28;20535;-62
2022/02/26 09:32:14;;;;;;;21.33;14.30;;;3.80;99.90;;;;;;5080954;28;20467;-62
2022/02/26 09:34:42;;;;;;;20.03;14.10;;;3.90;99.90;;;;;;5080468;28;20518;-62
2022/02/26 09:37:09;;;;;;;19.97;13.57;;;4.00;99.90;;;;;;5079672;28;20465;-62
2022/02/26 09:39:39;;;;;;;21.00;14.20;;;3.90;99.90;;;;;;5079196;28;20461;-61
2022/02/26 09:42:08;;;;;;;17.30;12.67;;;4.00;99.90;;;;;;5076452;28;20952;-62
2022/02/26 09:44:35;;;;;;;19.40;14.03;;;4.00;99.90;;;;;;5079433;28;20762;-63
2022/02/26 09:47:06;;;;;;;23.10;13.73;;;4.50;99.90;;;;;;5078555;28;20514;-62
2022/02/26 09:49:33;;;;;;;20.40;13.53;;;5.10;99.90;;;;;;5079990;28;20554;-62
2022/02/26 09:52:02;;;;;;;16.93;12.40;;;5.20;99.90;;;;;;5079811;28;20473;-63
2022/02/26 09:54:32;;;;;;;19.90;12.50;;;5.40;99.90;;;;;;5079979;28;20442;-63
2022/02/26 09:56:59;;;;;;;22.80;15.23;;;5.90;99.90;;;;;;5075811;28;20898;-63
2022/02/26 09:59:27;;;;;;;18.60;12.17;;;6.30;99.90;;;;;;5079594;28;20530;-63
2022/02/26 10:01:59;;;;;;;14.90;11.57;;;6.60;99.90;;;;;;5079746;28;20461;-64
2022/02/26 10:04:27;;;;;;;16.97;12.10;;;7.00;1.00;;;;;;5080100;28;20461;-64
2022/02/26 10:07:16;;;;;;;17.40;11.17;;;7.10;99.90;;;;;;5079275;28;20468;-64
2022/02/26 10:09:46;;;;;;;15.50;11.13;;;7.40;99.90;;;;;;5070148;28;20489;-64
2022/02/26 10:12:20;;;;;;;18.50;11.60;;;7.70;99.90;;;;;;5079033;28;20526;-64
2022/02/26 10:14:50;;;;;;;15.17;10.97;;;8.10;87.40;;;;;;5079406;28;20485;-65
2022/02/26 10:17:26;;;;;;;16.53;10.80;;;8.30;1.00;;;;;;5079703;28;20483;-65
2022/02/26 10:20:02;;;;;;;18.97;9.57;;;8.40;1.00;;;;;;5078674;28;20877;-65
2022/02/26 10:22:32;;;;;;;21.53;10.80;;;8.60;1.00;;;;;;5076826;28;20522;-65
2022/02/26 10:25:08;;;;;;;14.50;9.03;;;8.70;1.00;;;;;;5079619;28;20518;-64
2022/02/26 10:27:41;;;;;;;16.47;9.87;;;8.90;1.00;;;;;;5078951;28;20465;-65
2022/02/26 10:30:12;;;;;;;17.53;8.80;;;9.20;1.00;;;;;;5079676;28;20929;-65
2022/02/26 10:32:39;;;;;;;13.90;8.10;;;9.10;1.00;;;;;;5078989;28;20469;-65
2022/02/26 10:35:06;;;;;;;14.37;8.00;;;9.30;1.00;;;;;;5078699;28;20473;-64
2022/02/26 10:37:35;;;;;;;12.50;7.20;;;9.50;1.00;;;;;;5079119;28;20969;-64
2022/02/26 10:40:02;;;;;;;11.77;8.57;;;9.70;1.00;;;;;;5079294;28;20470;-64
2022/02/26 10:42:31;;;;;;;24.40;9.07;;;9.90;1.00;;;;;;5078533;28;20538;-64
2022/02/26 10:45:05;;;;;;;17.50;10.10;;;9.60;1.00;;;;;;5079337;28;20510;-64
2022/02/26 10:47:33;;;;;;;17.63;7.43;;;9.50;1.00;;;;;;5079383;28;20746;-64
2022/02/26 10:50:01;;;;;;;13.30;7.50;;;9.20;1.00;;;;;;5079241;28;20867;-64
2022/02/26 10:52:31;;;;;;;14.10;8.10;;;8.50;1.00;;;;;;5079284;28;20461;-64
2022/02/26 10:55:06;;;;;;;17.03;7.83;;;8.00;1.00;;;;;;5078717;28;20523;-64
2022/02/26 10:57:33;;;;;;;14.50;6.40;;;7.90;1.00;;;;;;5073777;28;20461;-64
2022/02/26 11:00:01;;;;;;;22.90;11.77;;;7.80;1.00;;;;;;5079347;28;20461;-64
2022/02/26 11:02:29;;;;;;;17.03;7.20;;;7.60;1.00;;;;;;5077953;28;20461;-64
2022/02/26 11:04:57;;;;;;;43.50;20.70;;;7.50;1.00;;;;;;5078851;28;20560;-64
2022/02/26 11:07:26;;;;;;;15.40;8.27;;;7.40;1.00;;;;;;5078210;28;20514;-63
2022/02/26 11:09:59;;;;;;;12.73;7.37;;;7.70;1.00;;;;;;5079163;28;20728;-63
2022/02/26 11:12:28;;;;;;;15.40;7.00;;;8.00;1.00;;;;;;5077980;28;20467;-63
2022/02/26 11:14:59;;;;;;;16.97;5.60;;;8.70;1.00;;;;;;5078313;28;20488;-63
2022/02/26 11:17:30;;;;;;;10.23;6.03;;;9.60;1.00;;;;;;5078230;28;20508;-63
2022/02/26 11:20:01;;;;;;;12.33;8.00;;;9.90;1.00;;;;;;5078583;28;20492;-63
2022/02/26 11:22:28;;;;;;;19.67;5.67;;;9.90;1.00;;;;;;5076657;28;20568;-63
2022/02/26 11:24:56;;;;;;;13.27;5.57;;;9.40;1.00;;;;;;5076654;28;20469;-62
2022/02/26 11:27:24;;;;;;;18.27;5.53;;;9.70;1.00;;;;;;5077528;28;20565;-62
2022/02/26 11:29:54;;;;;;;10.80;4.23;;;9.90;1.00;;;;;;5076723;28;20466;-62
2022/02/26 11:32:22;;;;;;;12.77;4.23;;;9.80;1.00;;;;;;5076056;28;20454;-62
2022/02/26 11:34:49;;;;;;;11.40;4.50;;;9.70;1.00;;;;;;5077243;28;20931;-61
2022/02/26 11:37:19;;;;;;;14.03;4.30;;;9.80;1.00;;;;;;5078015;28;20461;-61
2022/02/26 11:39:48;;;;;;;12.20;3.93;;;10.00;1.00;;;;;;5078078;28;20499;-60
2022/02/26 11:42:28;;;;;;;9.20;4.47;;;9.60;1.00;;;;;;5078442;28;20913;-62
2022/02/26 11:45:02;;;;;;;12.70;4.57;;;9.00;1.00;;;;;;5077203;28;20469;-62
2022/02/26 11:47:44;;;;;;;14.90;4.50;;;8.40;1.00;;;;;;5077046;28;20952;-61
2022/02/26 11:50:14;;;;;;;13.40;3.27;;;8.00;1.00;;;;;;5077630;28;20554;-63
2022/02/26 11:52:53;;;;;;;16.30;3.90;;;7.70;1.00;;;;;;5077561;28;20461;-62
2022/02/26 11:55:41;;;;;;;15.53;4.40;;;7.60;1.00;;;;;;5076617;28;20465;-62
2022/02/26 11:58:15;;;;;;;9.13;4.00;;;7.40;1.00;;;;;;5077704;28;20457;-60
2022/02/26 12:00:46;;;;;;;9.20;3.60;;;7.40;1.00;;;;;;5077310;28;20457;-60
2022/02/26 12:03:22;;;;;;;16.93;4.40;;;7.70;1.00;;;;;;5077129;28;20466;-61
2022/02/26 12:05:52;;;;;;;9.57;3.30;;;7.90;1.00;;;;;;5076964;28;20464;-62
2022/02/26 12:08:36;;;;;;;17.43;6.03;;;7.80;1.00;;;;;;5077567;28;20982;-62
2022/02/26 12:11:07;;;;;;;13.70;5.30;;;7.50;1.00;;;;;;5076157;28;20499;-62
2022/02/26 12:13:36;;;;;;;10.97;4.43;;;7.40;1.00;;;;;;5076903;28;20461;-62
2022/02/26 12:16:19;;;;;;;11.73;4.60;;;7.40;1.00;;;;;;5076030;28;20469;-62
2022/02/26 12:18:55;;;;;;;14.07;3.93;;;7.20;1.00;;;;;;5062983;28;20867;-62
2022/02/26 12:21:26;;;;;;;21.53;4.80;;;7.00;1.00;;;;;;5077263;28;20489;-62
2022/02/26 12:24:14;;;;;;;21.37;5.30;;;7.00;1.00;;;;;;5077303;28;20544;-62
2022/02/26 12:27:00;;;;;;;14.57;6.33;;;6.90;1.00;;;;;;5076877;28;20692;-62
2022/02/26 12:29:33;;;;;;;16.50;9.67;;;6.90;1.00;;;;;;5076973;28;20891;-60
2022/02/26 12:32:05;;;;;;;13.47;4.73;;;7.00;1.00;;;;;;5077364;28;20562;-61
2022/02/26 12:34:36;;;;;;;11.80;4.87;;;7.40;1.00;;;;;;5077611;28;20797;-61
2022/02/26 12:37:17;;;;;;;14.90;3.73;;;7.50;1.00;;;;;;5076610;28;20967;-60
2022/02/26 12:39:53;;;;;;;14.10;4.53;;;8.20;1.00;;;;;;5077443;28;20874;-60
2022/02/26 12:42:22;;;;;;;15.13;3.80;;;9.00;1.00;;;;;;5077365;28;20548;-62
2022/02/26 12:44:57;;;;;;;14.27;4.63;;;8.90;1.00;;;;;;5076539;28;20522;-61